createdAt,value
2017-07-26T00:01:34.049Z,15.20
2017-07-26T00:04:01.587Z,15.20
2017-07-26T00:06:29.139Z,15.30
2017-07-26T00:08:56.735Z,15.30
2017-07-26T00:11:24.286Z,15.30
2017-07-26T00:13:51.850Z,15.30
2017-07-26T00:16:19.393Z,15.20
2017-07-26T00:18:46.961Z,15.20
2017-07-26T00:21:14.538Z,15.20
2017-07-26T00:23:42.077Z,15.20
2017-07-26T00:26:09.620Z,15.20
2017-07-26T00:28:37.192Z,15.30
2017-07-26T00:31:04.734Z,15.30
2017-07-26T00:33:32.302Z,15.30
2017-07-26T00:35:59.871Z,15.30
2017-07-26T00:38:27.409Z,15.30
2017-07-26T00:40:54.990Z,15.30
2017-07-26T00:43:22.531Z,15.30
2017-07-26T00:45:50.062Z,15.20
2017-07-26T00:48:18.393Z,15.30
2017-07-26T00:50:45.971Z,15.30
2017-07-26T00:53:13.506Z,15.40
2017-07-26T00:55:41.049Z,15.40
2017-07-26T00:58:08.636Z,15.30
2017-07-26T01:00:36.177Z,15.30
2017-07-26T01:03:03.710Z,15.40
2017-07-26T01:05:31.282Z,15.40
2017-07-26T01:07:58.820Z,15.40
2017-07-26T01:10:27.165Z,15.30
2017-07-26T01:12:54.703Z,15.30
2017-07-26T01:15:22.237Z,15.50
2017-07-26T01:17:49.830Z,15.50
2017-07-26T01:20:17.365Z,15.50
2017-07-26T01:22:44.902Z,15.40
2017-07-26T01:25:12.481Z,15.40
2017-07-26T01:27:40.023Z,15.40
2017-07-26T01:30:07.566Z,15.40
2017-07-26T01:32:35.899Z,15.50
2017-07-26T01:35:03.438Z,15.40
2017-07-26T01:37:31.006Z,15.40
2017-07-26T01:39:58.546Z,15.40
2017-07-26T01:42:26.116Z,15.40
2017-07-26T01:44:53.683Z,15.50
2017-07-26T01:47:21.214Z,15.50
2017-07-26T01:49:48.828Z,15.50
2017-07-26T01:52:16.364Z,15.40
2017-07-26T01:54:43.943Z,15.60
2017-07-26T01:57:11.480Z,15.50
2017-07-26T01:59:39.024Z,15.50
2017-07-26T02:02:06.603Z,15.50
2017-07-26T02:04:34.138Z,15.50
2017-07-26T02:07:01.678Z,15.50
2017-07-26T02:09:30.030Z,15.50
2017-07-26T02:11:57.564Z,15.50
2017-07-26T02:14:25.101Z,15.50
2017-07-26T02:16:52.673Z,15.60
2017-07-26T02:19:20.215Z,15.50
2017-07-26T02:21:47.789Z,15.40
2017-07-26T02:24:15.325Z,15.30
2017-07-26T02:26:43.654Z,15.40
2017-07-26T02:29:11.195Z,15.40
2017-07-26T02:31:38.780Z,15.40
2017-07-26T02:34:06.319Z,15.50
2017-07-26T02:36:33.857Z,15.50
2017-07-26T02:39:01.430Z,15.50
2017-07-26T02:41:28.976Z,15.50
2017-07-26T02:43:56.554Z,15.40
2017-07-26T02:46:24.090Z,15.50
2017-07-26T02:48:51.625Z,15.50
2017-07-26T02:51:19.962Z,15.50
2017-07-26T02:53:47.542Z,15.50
2017-07-26T02:56:15.078Z,15.50
2017-07-26T02:58:42.617Z,15.50
2017-07-26T03:01:10.199Z,15.40
2017-07-26T03:03:37.739Z,15.40
2017-07-26T03:06:05.277Z,15.50
2017-07-26T03:08:32.855Z,15.40
2017-07-26T03:11:00.396Z,15.40
2017-07-26T03:13:27.939Z,15.50
2017-07-26T03:15:56.274Z,15.50
2017-07-26T03:18:23.812Z,15.50
2017-07-26T03:20:51.386Z,15.40
2017-07-26T03:23:18.932Z,15.40
2017-07-26T03:25:46.469Z,15.40
2017-07-26T03:28:14.806Z,15.50
2017-07-26T03:30:42.375Z,15.50
2017-07-26T03:33:09.910Z,15.50
2017-07-26T03:35:37.478Z,15.50
2017-07-26T03:38:05.025Z,15.50
2017-07-26T03:40:32.599Z,15.50
2017-07-26T03:43:00.183Z,15.50
2017-07-26T03:45:27.724Z,15.40
2017-07-26T03:47:55.262Z,15.40
2017-07-26T03:50:22.845Z,15.40
2017-07-26T03:52:50.383Z,15.40
2017-07-26T03:55:17.922Z,15.40
2017-07-26T03:57:45.487Z,15.50
2017-07-26T04:00:13.027Z,15.50
2017-07-26T04:02:40.608Z,15.50
2017-07-26T04:05:08.150Z,15.40
2017-07-26T04:07:35.690Z,15.50
2017-07-26T04:10:04.035Z,15.40
2017-07-26T04:12:31.574Z,15.40
2017-07-26T04:14:59.107Z,15.50
2017-07-26T04:17:26.680Z,15.50
2017-07-26T04:19:54.226Z,15.50
2017-07-26T04:22:21.759Z,15.50
2017-07-26T04:24:50.090Z,15.50
2017-07-26T04:27:17.681Z,15.50
2017-07-26T04:29:45.222Z,15.50
2017-07-26T04:32:12.789Z,15.50
2017-07-26T04:34:40.327Z,15.50
2017-07-26T04:37:07.899Z,15.40
2017-07-26T04:39:35.506Z,15.50
2017-07-26T04:42:03.805Z,15.40
2017-07-26T04:44:32.674Z,15.40
2017-07-26T04:47:01.009Z,15.40
2017-07-26T04:49:28.581Z,15.40
2017-07-26T04:51:56.118Z,15.40
2017-07-26T04:54:23.658Z,15.40
2017-07-26T04:56:51.237Z,15.50
2017-07-26T04:59:18.815Z,15.50
2017-07-26T05:01:46.355Z,15.40
2017-07-26T05:04:13.896Z,15.40
2017-07-26T05:06:41.469Z,15.50
2017-07-26T05:09:09.042Z,15.40
2017-07-26T05:11:36.623Z,15.40
2017-07-26T05:14:04.172Z,15.60
2017-07-26T05:16:31.708Z,15.70
2017-07-26T05:18:59.288Z,15.80
2017-07-26T05:21:26.831Z,15.90
2017-07-26T05:23:54.373Z,15.90
2017-07-26T05:26:21.943Z,16.00
2017-07-26T05:28:49.589Z,15.90
2017-07-26T05:31:17.127Z,16.00
2017-07-26T05:33:45.444Z,16.20
2017-07-26T05:36:13.030Z,16.20
2017-07-26T05:38:40.566Z,16.20
2017-07-26T05:41:08.107Z,16.20
2017-07-26T05:43:35.682Z,16.20
2017-07-26T05:46:03.221Z,16.20
2017-07-26T05:48:30.779Z,16.20
2017-07-26T05:50:58.354Z,16.10
2017-07-26T05:53:26.486Z,16.10
2017-07-26T05:55:54.061Z,16.10
2017-07-26T05:58:22.404Z,16.20
2017-07-26T06:00:49.942Z,16.20
2017-07-26T06:03:17.485Z,16.30
2017-07-26T06:05:45.062Z,16.30
2017-07-26T06:08:12.600Z,16.30
2017-07-26T06:10:40.135Z,16.40
2017-07-26T06:13:07.756Z,16.40
2017-07-26T06:15:35.300Z,16.50
2017-07-26T06:18:03.657Z,16.40
2017-07-26T06:20:31.242Z,16.40
2017-07-26T06:22:58.781Z,16.50
2017-07-26T06:25:26.319Z,16.50
2017-07-26T06:27:54.781Z,16.60
2017-07-26T06:30:23.091Z,16.60
2017-07-26T06:32:50.622Z,16.60
2017-07-26T06:35:18.276Z,16.70
2017-07-26T06:37:46.798Z,16.70
2017-07-26T06:40:14.341Z,16.70
2017-07-26T06:42:42.677Z,16.80
2017-07-26T06:45:10.262Z,16.80
2017-07-26T06:47:37.805Z,16.80
2017-07-26T06:50:05.346Z,16.70
2017-07-26T06:52:32.926Z,16.70
2017-07-26T06:55:00.468Z,16.70
2017-07-26T06:57:28.004Z,16.70
2017-07-26T06:59:55.598Z,16.70
2017-07-26T07:02:23.135Z,16.80
2017-07-26T07:04:50.701Z,16.80
2017-07-26T07:07:18.282Z,16.80
2017-07-26T07:09:45.828Z,16.90
2017-07-26T07:12:13.367Z,17.10
2017-07-26T07:14:40.942Z,17.30
2017-07-26T07:17:08.486Z,17.20
2017-07-26T07:19:36.026Z,17.40
2017-07-26T07:22:03.603Z,17.60
2017-07-26T07:24:31.167Z,17.80
2017-07-26T07:26:58.745Z,17.80
2017-07-26T07:29:26.286Z,17.80
2017-07-26T07:31:53.830Z,17.60
2017-07-26T07:34:21.438Z,17.50
2017-07-26T07:36:48.974Z,17.30
2017-07-26T07:39:16.511Z,17.30
2017-07-26T07:41:44.086Z,17.20
2017-07-26T07:44:11.628Z,17.20
2017-07-26T07:46:39.211Z,17.20
2017-07-26T07:49:06.750Z,17.10
2017-07-26T07:51:34.285Z,17.00
2017-07-26T07:54:01.945Z,17.00
2017-07-26T07:56:29.531Z,17.10
2017-07-26T07:58:57.485Z,17.00
2017-07-26T08:01:27.392Z,17.00
2017-07-26T08:03:55.734Z,17.20
2017-07-26T08:06:23.302Z,17.20
2017-07-26T08:08:51.007Z,17.30
2017-07-26T08:11:18.708Z,17.30
2017-07-26T08:13:46.364Z,17.30
2017-07-26T08:16:13.897Z,17.30
2017-07-26T08:18:42.961Z,17.20
2017-07-26T08:21:11.173Z,17.20
2017-07-26T08:23:39.460Z,17.30
2017-07-26T08:26:07.540Z,17.30
2017-07-26T08:28:42.058Z,17.30
2017-07-26T08:31:11.255Z,17.20
2017-07-26T08:33:42.095Z,17.30
2017-07-26T08:36:11.722Z,17.40
2017-07-26T08:38:42.845Z,17.50
2017-07-26T08:41:13.550Z,17.80
2017-07-26T08:43:42.821Z,17.90
2017-07-26T08:46:11.848Z,18.00
2017-07-26T08:48:41.182Z,18.00
2017-07-26T08:51:11.419Z,18.00
2017-07-26T08:53:40.375Z,18.00
2017-07-26T08:56:11.448Z,18.00
2017-07-26T08:58:41.050Z,18.00
2017-07-26T09:01:11.258Z,17.90
2017-07-26T09:03:42.010Z,17.80
2017-07-26T09:06:13.266Z,17.70
2017-07-26T09:08:42.859Z,17.70
2017-07-26T09:11:13.704Z,17.60
2017-07-26T09:13:45.428Z,17.70
2017-07-26T09:16:16.974Z,17.70
2017-07-26T09:18:47.129Z,17.90
2017-07-26T09:21:17.130Z,17.90
2017-07-26T09:23:47.198Z,18.00
2017-07-26T09:26:16.504Z,18.10
2017-07-26T09:28:45.392Z,18.70
2017-07-26T09:31:13.230Z,18.60
2017-07-26T09:33:40.976Z,18.90
2017-07-26T09:36:08.746Z,19.00
2017-07-26T09:38:36.586Z,18.90
2017-07-26T09:41:04.333Z,18.80
2017-07-26T09:43:32.835Z,18.80
2017-07-26T09:46:01.793Z,18.80
2017-07-26T09:48:29.926Z,19.00
2017-07-26T09:50:58.437Z,19.30
2017-07-26T09:53:26.081Z,19.30
2017-07-26T09:55:53.639Z,19.30
2017-07-26T09:58:21.241Z,19.40
2017-07-26T10:00:49.565Z,19.50
2017-07-26T10:03:17.147Z,19.50
2017-07-26T10:05:44.754Z,19.60
2017-07-26T10:08:12.293Z,19.70
2017-07-26T10:10:39.852Z,19.80
2017-07-26T10:13:08.238Z,20.10
2017-07-26T10:15:36.582Z,20.10
2017-07-26T10:18:04.145Z,20.10
2017-07-26T10:20:31.726Z,20.20
2017-07-26T10:23:00.086Z,20.30
2017-07-26T10:25:27.650Z,20.30
2017-07-26T10:27:55.207Z,20.40
2017-07-26T10:30:23.037Z,20.50
2017-07-26T10:32:50.611Z,20.50
2017-07-26T10:35:18.160Z,20.50
2017-07-26T10:37:45.742Z,20.50
2017-07-26T10:40:13.486Z,20.50
2017-07-26T10:42:41.085Z,20.40
2017-07-26T10:45:08.658Z,20.40
2017-07-26T10:47:37.028Z,20.90
2017-07-26T10:50:04.563Z,20.80
2017-07-26T10:52:32.094Z,20.90
2017-07-26T10:54:59.681Z,21.00
2017-07-26T10:57:27.219Z,21.10
2017-07-26T10:59:54.755Z,21.30
2017-07-26T11:02:22.332Z,21.40
2017-07-26T11:04:49.866Z,21.40
2017-07-26T11:07:17.414Z,21.40
2017-07-26T11:09:44.983Z,21.40
2017-07-26T11:12:13.278Z,21.40
2017-07-26T11:14:40.824Z,21.40
2017-07-26T11:17:08.390Z,21.30
2017-07-26T11:19:35.928Z,21.40
2017-07-26T11:22:03.511Z,21.40
2017-07-26T11:24:31.074Z,21.40
2017-07-26T11:26:58.621Z,21.50
2017-07-26T11:29:26.201Z,21.60
2017-07-26T11:31:53.735Z,21.60
2017-07-26T11:34:22.062Z,21.80
2017-07-26T11:36:49.639Z,21.70
2017-07-26T11:39:17.198Z,21.80
2017-07-26T11:41:44.771Z,21.90
2017-07-26T11:44:12.309Z,22.00
2017-07-26T11:46:39.899Z,22.10
2017-07-26T11:49:07.495Z,22.20
2017-07-26T11:51:35.069Z,22.20
2017-07-26T11:54:02.654Z,22.10
2017-07-26T11:56:30.208Z,22.20
2017-07-26T11:58:57.833Z,22.10
2017-07-26T12:01:25.436Z,22.10
2017-07-26T12:03:52.969Z,22.00
2017-07-26T12:06:20.497Z,22.00
2017-07-26T12:08:48.113Z,22.20
2017-07-26T12:11:15.652Z,22.00
2017-07-26T12:13:43.197Z,21.90
2017-07-26T12:16:12.613Z,21.90
2017-07-26T12:18:42.882Z,22.00
2017-07-26T12:21:10.989Z,22.00
2017-07-26T12:23:38.702Z,22.00
2017-07-26T12:26:06.472Z,22.10
2017-07-26T12:28:34.340Z,22.10
2017-07-26T12:31:02.476Z,21.90
2017-07-26T12:33:30.470Z,21.80
2017-07-26T12:35:59.338Z,22.00
2017-07-26T12:38:27.920Z,22.00
2017-07-26T12:40:57.097Z,22.00
2017-07-26T12:43:24.811Z,21.90
2017-07-26T12:45:52.605Z,22.00
2017-07-26T12:48:20.232Z,22.00
2017-07-26T12:50:47.774Z,21.90
2017-07-26T12:53:15.562Z,21.90
2017-07-26T12:55:43.334Z,21.90
2017-07-26T12:58:17.115Z,21.90
2017-07-26T13:00:44.790Z,22.00
2017-07-26T13:03:12.339Z,22.20
2017-07-26T13:05:39.904Z,22.30
2017-07-26T13:08:07.442Z,22.40
2017-07-26T13:10:35.019Z,22.50
2017-07-26T13:13:02.565Z,22.60
2017-07-26T13:15:30.123Z,22.60
2017-07-26T13:17:57.710Z,22.80
2017-07-26T13:20:25.252Z,22.80
2017-07-26T13:22:52.806Z,22.80
2017-07-26T13:25:21.546Z,23.00
2017-07-26T13:27:49.795Z,23.00
2017-07-26T13:30:17.674Z,23.10
2017-07-26T13:32:45.259Z,23.30
2017-07-26T13:35:13.559Z,23.40
2017-07-26T13:37:41.104Z,23.30
2017-07-26T13:40:09.982Z,23.30
2017-07-26T13:42:38.296Z,23.10
2017-07-26T13:45:05.839Z,23.10
2017-07-26T13:47:33.418Z,23.10
2017-07-26T13:50:00.970Z,23.00
2017-07-26T13:52:28.563Z,23.10
2017-07-26T13:54:56.117Z,23.20
2017-07-26T13:57:23.714Z,23.10
2017-07-26T13:59:52.061Z,23.20
2017-07-26T14:02:19.609Z,23.20
2017-07-26T14:04:47.154Z,23.30
2017-07-26T14:07:14.754Z,23.20
2017-07-26T14:09:42.299Z,22.80
2017-07-26T14:12:09.852Z,22.90
2017-07-26T14:14:37.425Z,22.90
2017-07-26T14:17:04.973Z,23.00
2017-07-26T14:19:32.519Z,23.20
2017-07-26T14:22:00.089Z,23.10
2017-07-26T14:24:27.626Z,22.90
2017-07-26T14:26:55.158Z,22.80
2017-07-26T14:29:22.725Z,23.00
2017-07-26T14:31:50.286Z,23.00
2017-07-26T14:34:17.819Z,23.10
2017-07-26T14:36:46.165Z,23.10
2017-07-26T14:39:13.706Z,23.10
2017-07-26T14:41:41.238Z,23.10
2017-07-26T14:44:08.810Z,23.30
2017-07-26T14:46:36.341Z,23.40
2017-07-26T14:49:04.637Z,23.40
2017-07-26T14:51:32.205Z,23.50
2017-07-26T14:53:59.733Z,23.60
2017-07-26T14:56:27.297Z,23.40
2017-07-26T14:58:55.638Z,23.30
2017-07-26T15:01:23.165Z,23.30
2017-07-26T15:03:50.730Z,23.40
2017-07-26T15:06:18.257Z,23.40
2017-07-26T15:08:46.603Z,23.20
2017-07-26T15:11:14.135Z,23.20
2017-07-26T15:13:41.666Z,23.20
2017-07-26T15:16:09.242Z,23.10
2017-07-26T15:18:37.630Z,23.10
2017-07-26T15:21:05.162Z,23.20
2017-07-26T15:23:32.749Z,23.10
2017-07-26T15:26:00.274Z,23.20
2017-07-26T15:28:28.570Z,23.70
2017-07-26T15:30:56.169Z,23.70
2017-07-26T15:33:23.706Z,23.80
2017-07-26T15:35:51.245Z,23.60
2017-07-26T15:38:18.806Z,23.50
2017-07-26T15:40:46.335Z,23.50
2017-07-26T15:43:14.678Z,23.60
2017-07-26T15:45:42.205Z,23.60
2017-07-26T15:48:11.877Z,23.70
2017-07-26T15:50:39.454Z,23.60
2017-07-26T15:53:07.758Z,23.20
2017-07-26T15:55:35.286Z,23.20
2017-07-26T15:58:03.639Z,23.50
2017-07-26T16:00:31.175Z,23.40
2017-07-26T16:02:58.712Z,23.50
2017-07-26T16:05:26.887Z,23.40
2017-07-26T16:07:54.425Z,23.40
2017-07-26T16:10:22.002Z,23.50
2017-07-26T16:12:49.533Z,23.60
2017-07-26T16:15:17.062Z,23.60
2017-07-26T16:17:44.621Z,23.80
2017-07-26T16:20:12.150Z,23.90
2017-07-26T16:22:39.724Z,23.80
2017-07-26T16:25:07.259Z,23.70
2017-07-26T16:27:34.799Z,23.70
2017-07-26T16:30:02.375Z,23.70
2017-07-26T16:32:29.913Z,23.70
2017-07-26T16:34:58.211Z,23.80
2017-07-26T16:37:25.769Z,23.80
2017-07-26T16:39:54.207Z,23.70
2017-07-26T16:42:21.777Z,23.70
2017-07-26T16:44:49.310Z,23.60
2017-07-26T16:47:16.842Z,23.70
2017-07-26T16:49:44.407Z,23.60
2017-07-26T16:52:11.941Z,23.50
2017-07-26T16:54:39.507Z,23.70
2017-07-26T16:57:07.080Z,23.80
2017-07-26T16:59:34.642Z,24.00
2017-07-26T17:02:02.171Z,24.10
2017-07-26T17:04:30.146Z,24.20
2017-07-26T17:06:57.680Z,24.30
2017-07-26T17:09:25.209Z,24.10
2017-07-26T19:13:08.238Z,21.50
2017-07-26T19:15:35.993Z,21.50
2017-07-26T19:18:03.574Z,21.40
2017-07-26T19:20:31.101Z,21.30
2017-07-26T19:22:58.675Z,21.40
2017-07-26T19:25:26.215Z,21.40
2017-07-26T19:27:53.791Z,21.20
2017-07-26T19:30:21.359Z,21.20
2017-07-26T19:32:49.726Z,21.20
2017-07-26T19:35:17.297Z,21.20
2017-07-26T19:37:44.878Z,21.20
2017-07-26T19:40:12.463Z,21.30
2017-07-26T19:42:40.771Z,21.20
2017-07-26T19:45:08.304Z,21.20
2017-07-26T19:47:35.886Z,21.20
2017-07-26T19:50:03.426Z,21.20
2017-07-26T19:52:30.990Z,21.20
2017-07-26T19:54:58.870Z,21.20
2017-07-26T19:57:26.431Z,21.10
2017-07-26T19:59:54.002Z,21.20
2017-07-26T20:02:21.618Z,21.20
2017-07-26T20:04:49.958Z,21.20
2017-07-26T20:07:17.528Z,21.10
2017-07-26T20:09:45.844Z,21.10
2017-07-26T20:12:13.432Z,21.00
2017-07-26T20:14:41.137Z,21.00
2017-07-26T20:17:11.530Z,21.00
2017-07-26T20:19:39.109Z,21.00
2017-07-26T20:22:07.459Z,21.10
2017-07-26T20:24:35.032Z,21.10
2017-07-26T20:27:02.566Z,21.00
2017-07-26T20:29:30.127Z,21.00
2017-07-26T20:31:57.700Z,21.20
2017-07-26T20:34:25.242Z,21.10
2017-07-26T20:36:52.869Z,21.00
2017-07-26T20:39:21.176Z,20.90
2017-07-26T20:41:48.709Z,20.90
2017-07-26T20:44:16.278Z,20.90
2017-07-26T20:46:44.039Z,20.90
2017-07-26T20:49:11.615Z,21.10
2017-07-26T20:51:39.157Z,21.10
2017-07-26T20:54:06.702Z,21.00
2017-07-26T20:56:34.294Z,21.00
2017-07-26T20:59:01.830Z,20.90
2017-07-26T21:01:29.371Z,20.90
2017-07-26T21:03:57.038Z,20.80
2017-07-26T21:06:25.334Z,20.50
2017-07-26T21:08:52.882Z,20.50
2017-07-26T21:11:20.467Z,20.40
2017-07-26T21:13:47.995Z,20.30
2017-07-26T21:16:15.539Z,20.40
2017-07-26T21:18:44.078Z,20.30
2017-07-26T21:21:11.646Z,20.30
2017-07-26T21:23:39.229Z,20.30
2017-07-26T21:26:06.767Z,20.20
2017-07-26T21:28:34.302Z,20.20
2017-07-26T21:31:01.903Z,20.10
2017-07-26T21:33:29.438Z,20.10
2017-07-26T21:35:57.010Z,20.00
2017-07-26T21:38:24.545Z,19.90
2017-07-26T21:40:52.085Z,19.90
2017-07-26T21:43:19.663Z,19.90
2017-07-26T21:45:47.222Z,19.90
2017-07-26T21:48:14.767Z,19.80
2017-07-26T21:50:42.370Z,19.90
2017-07-26T21:53:09.902Z,19.80
2017-07-26T21:55:37.439Z,19.70
2017-07-26T21:58:05.491Z,19.70
2017-07-26T22:00:33.032Z,19.70
2017-07-26T22:03:00.573Z,19.70
2017-07-26T22:05:28.161Z,19.60
2017-07-26T22:07:55.702Z,19.60
2017-07-26T22:10:23.248Z,19.60
2017-07-26T22:12:50.822Z,19.60
2017-07-26T22:15:18.370Z,19.60
2017-07-26T22:17:45.954Z,19.60
2017-07-26T22:20:13.490Z,19.60
2017-07-26T22:22:41.793Z,19.60
2017-07-26T22:25:09.383Z,19.60
2017-07-26T22:27:36.931Z,19.50
2017-07-26T22:30:04.469Z,19.60
2017-07-26T22:32:32.070Z,19.50
2017-07-26T22:34:59.611Z,19.40
2017-07-26T22:37:27.196Z,19.40
2017-07-26T22:39:54.740Z,19.30
2017-07-26T22:42:22.317Z,19.40
2017-07-26T22:44:49.858Z,19.30
2017-07-26T22:47:17.422Z,19.20
2017-07-26T22:49:45.000Z,19.20
2017-07-26T22:52:12.541Z,19.20
2017-07-26T22:54:40.434Z,19.10
2017-07-26T22:57:08.014Z,19.20
2017-07-26T22:59:36.012Z,19.20
2017-07-26T23:02:03.622Z,19.10
2017-07-26T23:04:31.165Z,19.10
2017-07-26T23:06:58.703Z,19.00
2017-07-26T23:09:26.270Z,19.00
2017-07-26T23:11:53.803Z,18.90
2017-07-26T23:14:21.374Z,18.90
2017-07-26T23:16:48.906Z,18.90
2017-07-26T23:19:16.456Z,19.00
2017-07-26T23:21:44.033Z,19.00
2017-07-26T23:24:11.805Z,18.90
2017-07-26T23:26:39.341Z,19.00
2017-07-26T23:29:06.906Z,19.00
2017-07-26T23:31:34.441Z,18.90
2017-07-26T23:34:02.068Z,18.90
2017-07-26T23:36:31.114Z,18.80
2017-07-26T23:38:58.661Z,18.80
2017-07-26T23:41:27.006Z,19.00
2017-07-26T23:43:54.538Z,19.00
2017-07-26T23:46:22.127Z,19.00
2017-07-26T23:48:49.669Z,18.90
2017-07-26T23:51:17.209Z,18.90
2017-07-26T23:53:44.796Z,18.90
2017-07-26T23:56:12.340Z,18.80
2017-07-26T23:58:39.914Z,18.90
